Time;durP1;ratioP1;P1;durP2;ratioP2;P2;SDS_P1;SDS_P2;PMS_P1;PMS_P2;Temp;Humidity;BMP_temperature;BMP_pressure;BME280_temperature;BME280_humidity;BME280_pressure;Samples;Min_cycle;Max_cycle;Signal;HPM_P1;HPM_P2
2022/10/04 00:01:46;;;;;;;12.65;8.70;;;;;;;18.88;89.59;101294.72;5094687;28;20494;-68
2022/10/04 00:04:26;;;;;;;13.93;8.80;;;;;;;18.79;90.02;101287.19;5110703;28;20048;-68
2022/10/04 00:07:00;;;;;;;13.73;9.40;;;;;;;18.78;90.17;101295.81;5112794;28;20055;-67
2022/10/04 00:09:46;;;;;;;13.98;9.60;;;;;;;18.70;90.75;101289.09;5112695;28;20042;-68
2022/10/04 00:12:22;;;;;;;14.73;9.63;;;;;;;18.72;90.61;101292.34;5112263;28;20063;-67
2022/10/04 00:14:54;;;;;;;13.73;10.35;;;;;;;18.67;90.49;101293.31;5112074;28;20048;-67
2022/10/04 00:17:34;;;;;;;15.20;10.05;;;;;;;18.73;90.21;101296.75;5112325;28;20044;-67
2022/10/04 00:20:23;;;;;;;16.52;9.82;;;;;;;18.70;90.43;101296.56;5111978;28;20047;-67
2022/10/04 00:23:22;;;;;;;13.55;9.70;;;;;;;18.68;90.09;101291.38;5111232;28;20054;-67
2022/10/04 00:25:52;;;;;;;15.07;10.73;;;;;;;18.63;91.19;101294.28;5112260;28;20505;-68
2022/10/04 00:28:20;;;;;;;14.63;9.63;;;;;;;18.58;90.96;101291.63;5111910;28;20047;-68
2022/10/04 00:31:06;;;;;;;11.50;9.05;;;;;;;18.51;91.40;101284.59;5111893;28;20390;-68
2022/10/04 00:33:44;;;;;;;15.18;9.30;;;;;;;18.42;92.02;101288.44;5111540;28;20047;-67
2022/10/04 00:36:24;;;;;;;16.35;10.90;;;;;;;18.39;91.63;101289.91;5112286;28;20049;-67
2022/10/04 00:39:02;;;;;;;11.95;9.13;;;;;;;18.34;92.28;101282.50;5111696;28;20164;-67
2022/10/04 00:41:48;;;;;;;12.02;9.50;;;;;;;18.25;91.81;101288.03;5110869;28;20498;-67
2022/10/04 00:44:43;;;;;;;14.27;10.50;;;;;;;18.29;91.56;101293.75;5111771;28;20051;-67
2022/10/04 00:47:30;;;;;;;13.98;9.45;;;;;;;18.30;92.10;101294.56;5111858;28;20055;-67
2022/10/04 00:50:27;;;;;;;13.93;9.55;;;;;;;18.24;91.53;101299.41;5111564;28;20051;-68
2022/10/04 00:53:01;;;;;;;19.27;10.27;;;;;;;18.16;91.50;101298.22;5104062;28;20058;-68
2022/10/04 00:55:36;;;;;;;;;;;;;;;18.13;91.87;101294.13;5110956;28;20486;-68
2022/10/04 00:58:14;;;;;;;17.40;10.40;;;;;;;18.08;92.25;101287.91;5112004;28;20295;-67
2022/10/04 01:00:43;;;;;;;17.75;10.85;;;;;;;17.98;92.84;101292.50;5109939;28;20051;-67
2022/10/04 01:03:18;;;;;;;18.50;11.98;;;;;;;17.93;92.57;101292.63;5110037;28;20048;-68
2022/10/04 01:05:54;;;;;;;16.65;11.55;;;;;;;17.92;93.29;101290.97;5111169;28;20055;-68
2022/10/04 01:08:37;;;;;;;20.55;10.73;;;;;;;17.95;93.30;101295.09;5111891;28;20044;-68
2022/10/04 01:11:14;;;;;;;18.30;11.45;;;;;;;17.95;93.83;101287.56;5111495;28;20062;-67
2022/10/04 01:13:49;;;;;;;16.75;10.85;;;;;;;17.92;93.43;101287.38;5097261;28;20060;-68
2022/10/04 01:16:23;;;;;;;19.77;11.65;;;;;;;17.89;93.02;101294.38;5098501;28;20044;-68
2022/10/04 01:18:52;;;;;;;14.63;10.50;;;;;;;17.96;92.91;101292.00;5111065;28;20060;-67
2022/10/04 01:21:19;;;;;;;19.08;11.82;;;;;;;17.91;93.61;101285.75;5110659;28;20059;-67
2022/10/04 01:23:52;;;;;;;17.15;11.00;;;;;;;17.96;93.37;101288.41;5111521;28;20520;-68
2022/10/04 01:26:29;;;;;;;15.88;11.23;;;;;;;18.07;93.17;101289.00;5110919;28;20048;-68
2022/10/04 01:29:00;;;;;;;18.40;11.68;;;;;;;18.12;92.47;101278.63;5110497;28;20063;-67
2022/10/04 01:31:31;;;;;;;17.08;11.30;;;;;;;18.05;92.93;101277.41;5102468;28;20047;-67
2022/10/04 01:34:04;;;;;;;16.33;11.07;;;;;;;17.95;93.42;101272.94;5090560;28;20502;-68
2022/10/04 01:36:35;;;;;;;18.90;12.45;;;;;;;18.08;93.63;101272.06;5111405;28;20058;-67
2022/10/04 01:39:05;;;;;;;16.90;10.90;;;;;;;18.03;93.72;101274.13;5093251;28;20073;-67
2022/10/04 01:41:43;;;;;;;18.08;11.52;;;;;;;18.09;93.39;101273.72;5111624;28;20043;-69
2022/10/04 01:44:23;;;;;;;17.55;11.25;;;;;;;18.13;93.49;101265.59;5114000;28;20055;-68
2022/10/04 01:46:55;;;;;;;18.25;12.00;;;;;;;18.18;92.29;101268.22;5115165;28;20047;-67
2022/10/04 01:49:29;;;;;;;17.23;11.27;;;;;;;18.12;92.34;101275.03;5114632;28;20512;-67
2022/10/04 01:52:22;;;;;;;17.92;10.98;;;;;;;18.10;93.13;101267.03;5113617;28;20164;-67
2022/10/04 01:55:15;;;;;;;24.30;12.27;;;;;;;18.09;92.40;101267.38;5108427;28;20055;-67
2022/10/04 01:57:49;;;;;;;20.58;12.00;;;;;;;18.06;92.35;101266.03;5115235;28;20044;-67
2022/10/04 02:00:20;;;;;;;15.32;11.82;;;;;;;17.98;92.59;101259.28;5113961;28;20043;-67
2022/10/04 02:02:57;;;;;;;18.02;11.95;;;;;;;17.88;93.26;101259.50;5114102;28;20039;-67
2022/10/04 02:05:30;;;;;;;16.55;10.93;;;;;;;17.81;93.37;101262.72;5114312;28;20043;-67
2022/10/04 02:08:07;;;;;;;19.63;10.65;;;;;;;17.97;92.19;101259.56;5114413;28;20039;-68
2022/10/04 02:10:38;;;;;;;17.33;10.90;;;;;;;17.86;92.38;101256.25;5113331;27;20074;-67
2022/10/04 02:13:14;;;;;;;16.75;9.98;;;;;;;17.71;93.04;101249.91;5114082;28;20062;-68
2022/10/04 02:15:43;;;;;;;15.80;10.35;;;;;;;17.60;93.54;101259.63;5096259;28;20047;-68
2022/10/04 02:18:14;;;;;;;15.57;9.65;;;;;;;17.59;93.26;101258.78;5113100;28;20059;-67
2022/10/04 02:20:44;;;;;;;15.98;10.52;;;;;;;17.69;92.44;101263.25;5113984;28;20048;-68
2022/10/04 02:23:13;;;;;;;18.63;10.13;;;;;;;17.60;91.94;101248.56;5113930;28;20059;-68
2022/10/04 02:25:40;;;;;;;12.30;8.63;;;;;;;17.56;91.90;101248.31;5094132;28;20055;-67
2022/10/04 02:28:10;;;;;;;14.65;9.43;;;;;;;17.58;91.90;101248.84;5114352;28;20489;-68
2022/10/04 02:30:43;;;;;;;15.68;9.25;;;;;;;17.60;91.88;101243.00;5113465;28;20051;-67
2022/10/04 02:33:11;;;;;;;18.65;9.85;;;;;;;17.48;93.24;101251.00;5114077;28;20385;-68
2022/10/04 02:35:47;;;;;;;18.08;10.00;;;;;;;17.39;93.96;101243.44;5113734;28;20055;-68
2022/10/04 02:38:21;;;;;;;15.73;10.20;;;;;;;17.39;94.00;101237.91;5113358;28;20054;-68
2022/10/04 02:40:48;;;;;;;;;;;;;;;17.52;93.35;101238.19;5113806;28;20497;-67
2022/10/04 02:43:24;;;;;;;15.20;9.68;;;;;;;17.45;93.92;101242.22;5114177;28;19919;-67
2022/10/04 02:46:03;;;;;;;19.60;11.40;;;;;;;17.35;94.90;101250.72;5113083;28;20039;-67
2022/10/04 02:48:45;;;;;;;15.98;10.57;;;;;;;17.29;94.07;101250.03;5112787;28;20054;-68
2022/10/04 02:51:29;;;;;;;18.45;9.73;;;;;;;17.29;94.24;101250.03;5112647;28;20505;-67
2022/10/04 02:54:03;;;;;;;;;;;;;;;17.15;94.87;101254.75;5112572;28;20039;-67
2022/10/04 02:56:32;;;;;;;14.30;9.05;;;;;;;17.07;95.15;101250.78;5111627;28;19927;-67
2022/10/04 02:59:03;;;;;;;14.27;9.30;;;;;;;17.04;94.67;101254.97;5109744;28;20066;-67
2022/10/04 03:02:00;;;;;;;15.57;10.32;;;;;;;17.05;94.52;101250.25;5111580;28;20478;-68
2022/10/04 03:04:37;;;;;;;12.38;8.55;;;;;;;17.07;94.40;101245.25;5086349;28;20047;-67
2022/10/04 03:07:08;;;;;;;13.82;8.70;;;;;;;17.05;93.53;101253.84;5110751;28;20046;-67
2022/10/04 03:09:37;;;;;;;9.85;7.60;;;;;;;16.96;92.62;101250.13;5097869;28;20047;-67
2022/10/04 03:12:05;;;;;;;10.13;8.40;;;;;;;16.97;92.96;101259.25;5110393;28;20040;-67
2022/10/04 03:14:33;;;;;;;11.32;7.22;;;;;;;16.97;93.55;101259.25;5110035;28;20040;-67
2022/10/04 03:17:05;;;;;;;15.52;8.15;;;;;;;16.98;92.62;101263.63;5094979;28;20080;-67
2022/10/04 03:19:34;;;;;;;13.15;7.63;;;;;;;16.94;92.08;101257.91;5106936;28;20126;-67
2022/10/04 03:22:07;;;;;;;15.43;7.78;;;;;;;17.13;92.23;101263.38;5109082;27;20058;-67
2022/10/04 03:24:56;;;;;;;11.52;7.63;;;;;;;17.10;91.41;101263.16;5108690;28;20058;-67
2022/10/04 03:27:32;;;;;;;12.88;7.38;;;;;;;17.08;92.49;101268.16;5109444;28;20059;-67
2022/10/04 03:30:01;;;;;;;12.80;8.50;;;;;;;17.08;91.76;101271.75;5101002;28;20055;-67
2022/10/04 03:32:31;;;;;;;13.15;8.50;;;;;;;17.12;91.17;101281.09;5104581;28;20052;-67
2022/10/04 03:35:04;;;;;;;12.88;8.13;;;;;;;17.09;92.08;101269.81;5110485;28;20385;-67
2022/10/04 03:37:37;;;;;;;13.80;8.80;;;;;;;17.16;91.20;101273.00;5111521;28;20393;-68
2022/10/04 03:40:09;;;;;;;12.27;8.65;;;;;;;17.18;91.42;101277.09;5110150;28;20054;-67
2022/10/04 03:42:38;;;;;;;13.90;8.32;;;;;;;17.24;91.27;101274.19;5113125;28;20054;-67
2022/10/04 03:45:10;;;;;;;12.23;7.65;;;;;;;17.16;91.24;101278.53;5112584;28;20058;-67
2022/10/04 03:47:43;;;;;;;13.02;7.95;;;;;;;17.18;90.63;101288.16;5112481;28;20047;-67
2022/10/04 03:50:11;;;;;;;10.50;7.38;;;;;;;17.06;91.34;101291.41;5111730;27;20490;-67
2022/10/04 03:52:50;;;;;;;12.07;8.00;;;;;;;17.03;91.67;101285.69;5112322;28;20048;-67
2022/10/04 03:55:19;;;;;;;13.68;7.28;;;;;;;17.04;92.65;101288.16;5112273;28;20568;-67
2022/10/04 03:57:47;;;;;;;13.25;8.38;;;;;;;17.11;90.80;101293.25;5111815;28;20050;-67
2022/10/04 04:00:17;;;;;;;12.52;8.00;;;;;;;17.10;90.47;101279.75;5111455;28;20044;-67
2022/10/04 04:02:54;;;;;;;11.65;8.07;;;;;;;16.98;90.91;101285.75;5111387;28;20484;-67
2022/10/04 04:05:30;;;;;;;12.00;8.45;;;;;;;17.18;90.62;101293.69;5112042;28;20051;-68
2022/10/04 04:08:11;;;;;;;16.25;8.50;;;;;;;17.11;91.04;101290.50;5105600;27;20059;-67
2022/10/04 04:10:45;;;;;;;12.40;7.97;;;;;;;17.12;91.29;101288.56;5106100;27;20409;-67
2022/10/04 04:13:23;;;;;;;12.27;7.82;;;;;;;17.26;90.57;101291.31;5111179;28;20040;-67
2022/10/04 04:15:53;;;;;;;10.52;7.43;;;;;;;17.31;90.36;101291.22;5110252;28;20494;-67
2022/10/04 04:18:29;;;;;;;16.08;8.60;;;;;;;17.28;91.64;101292.66;5109857;28;20043;-67
2022/10/04 04:21:00;;;;;;;11.45;8.02;;;;;;;17.30;91.99;101293.16;5110948;28;20493;-67
2022/10/04 04:23:47;;;;;;;13.95;9.15;;;;;;;17.30;93.57;101295.13;5111977;28;20054;-67
2022/10/04 04:26:33;;;;;;;13.57;9.20;;;;;;;17.35;91.43;101292.22;5112359;28;20512;-67
2022/10/04 04:29:07;;;;;;;12.77;7.95;;;;;;;17.37;90.78;101286.38;5112290;28;20058;-68
2022/10/04 04:31:47;;;;;;;13.43;8.77;;;;;;;17.32;91.24;101292.84;5106848;28;20058;-68
2022/10/04 04:34:57;;;;;;;11.63;8.18;;;;;;;17.22;91.57;101298.59;5105251;28;20656;-67
2022/10/04 04:37:25;;;;;;;11.88;7.80;;;;;;;17.24;92.50;101302.69;5111227;28;20482;-67
2022/10/04 04:39:56;;;;;;;14.63;8.57;;;;;;;17.22;91.77;101293.06;5110541;28;20043;-68
2022/10/04 04:42:31;;;;;;;16.17;8.40;;;;;;;17.29;91.56;101302.59;5111317;28;20055;-67
2022/10/04 04:45:04;;;;;;;14.45;8.52;;;;;;;17.31;91.33;101307.81;5112012;28;20050;-67
2022/10/04 04:47:41;;;;;;;18.13;9.18;;;;;;;17.43;90.66;101307.28;5111090;28;20054;-67
2022/10/04 04:50:16;;;;;;;12.40;8.38;;;;;;;17.28;91.18;101314.78;5111039;28;20063;-70
2022/10/04 04:52:50;;;;;;;12.73;8.80;;;;;;;17.36;90.90;101318.78;5094266;28;20512;-67
2022/10/04 04:55:28;;;;;;;12.55;8.02;;;;;;;17.38;90.83;101316.50;5111271;28;20055;-67
2022/10/04 04:58:21;;;;;;;14.35;7.07;;;;;;;17.28;89.86;101309.25;5111174;28;20052;-67
2022/10/04 05:00:59;;;;;;;12.93;6.93;;;;;;;17.23;90.22;101312.13;5110429;28;20040;-67
2022/10/04 05:03:30;;;;;;;9.98;6.45;;;;;;;17.18;89.21;101324.13;5111154;28;20044;-68
2022/10/04 05:06:01;;;;;;;13.38;6.78;;;;;;;17.12;88.98;101321.75;5111349;28;20050;-67
2022/10/04 05:08:34;;;;;;;11.65;6.15;;;;;;;17.12;89.40;101333.63;5111076;28;20406;-66
2022/10/04 05:11:08;;;;;;;9.32;6.25;;;;;;;17.12;90.32;101333.63;5109713;28;20770;-66
2022/10/04 05:13:37;;;;;;;10.73;7.00;;;;;;;17.05;90.48;101339.56;5111293;28;20055;-67
2022/10/04 05:16:13;;;;;;;12.10;7.00;;;;;;;17.06;91.18;101337.63;5111271;28;20047;-67
2022/10/04 05:18:41;;;;;;;11.38;6.97;;;;;;;16.99;91.58;101335.22;5107286;28;20043;-68
2022/10/04 05:21:41;;;;;;;9.25;6.28;;;;;;;16.91;90.63;101328.44;5115102;28;20051;-68
2022/10/04 05:24:22;;;;;;;12.98;6.53;;;;;;;16.96;90.33;101330.28;5089604;28;20048;-68
2022/10/04 05:26:54;;;;;;;11.02;6.65;;;;;;;17.02;89.49;101325.50;5105357;28;20063;-68
2022/10/04 05:29:33;;;;;;;11.07;7.10;;;;;;;16.99;90.03;101332.47;5092091;28;20506;-68
2022/10/04 05:32:32;;;;;;;8.45;6.18;;;;;;;16.96;90.48;101343.31;5115368;28;20453;-67
2022/10/04 05:35:00;;;;;;;11.23;6.30;;;;;;;16.89;90.63;101341.75;5113320;27;20086;-67
2022/10/04 05:37:37;;;;;;;11.20;6.65;;;;;;;16.89;90.06;101350.06;5115609;28;20046;-67
2022/10/04 05:40:14;;;;;;;12.68;6.68;;;;;;;16.83;90.71;101348.50;5112084;28;20051;-67
2022/10/04 05:42:44;;;;;;;11.32;7.20;;;;;;;16.86;91.18;101341.56;5113772;28;20040;-68
2022/10/04 05:45:35;;;;;;;10.88;7.10;;;;;;;16.70;91.50;101343.75;5113192;27;20066;-68
2022/10/04 05:48:07;;;;;;;10.95;7.05;;;;;;;16.84;90.98;101352.06;5079837;28;20047;-68
2022/10/04 05:50:41;;;;;;;7.90;6.38;;;;;;;16.80;91.61;101351.88;5115276;28;20406;-68
2022/10/04 05:53:34;;;;;;;9.93;7.18;;;;;;;16.91;90.18;101355.25;5097076;28;20036;-68
2022/10/04 05:56:40;;;;;;;11.35;6.47;;;;;;;16.92;90.02;101354.16;5115223;28;20043;-69
2022/10/04 05:59:14;;;;;;;10.93;6.18;;;;;;;16.99;89.90;101354.56;5059942;28;20047;-68
2022/10/04 06:02:06;;;;;;;10.77;5.85;;;;;;;17.04;89.77;101353.69;5107243;28;20035;-68
2022/10/04 06:04:58;;;;;;;12.50;5.93;;;;;;;17.14;89.25;101359.03;5102882;28;20080;-69
2022/10/04 06:07:50;;;;;;;12.35;7.00;;;;;;;17.17;90.04;101352.06;5114519;28;20039;-69
2022/10/04 06:10:33;;;;;;;9.88;6.75;;;;;;;17.30;89.98;101353.22;5114665;28;20047;-68
2022/10/04 06:13:24;;;;;;;19.52;6.82;;;;;;;17.38;88.33;101368.25;5102483;28;20059;-68
2022/10/04 06:16:06;;;;;;;14.00;6.88;;;;;;;17.39;88.96;101365.19;5114568;28;20042;-68
2022/10/04 06:18:57;;;;;;;12.85;7.18;;;;;;;17.48;88.56;101368.06;5114503;28;20513;-68
2022/10/04 06:21:36;;;;;;;10.63;7.30;;;;;;;17.42;88.89;101366.50;5114614;28;20406;-69
2022/10/04 06:24:10;;;;;;;10.90;7.00;;;;;;;17.52;88.92;101379.31;5100165;28;20040;-69
2022/10/04 06:26:47;;;;;;;12.30;8.32;;;;;;;17.71;87.56;101368.94;5114559;28;20047;-68
2022/10/04 06:29:19;;;;;;;14.35;7.47;;;;;;;17.94;87.07;101374.56;5113829;28;20047;-68
2022/10/04 06:32:03;;;;;;;12.45;8.43;;;;;;;18.13;86.61;101376.38;5114457;28;20046;-68
2022/10/04 06:34:49;;;;;;;15.88;7.80;;;;;;;18.06;87.30;101382.38;5096017;28;20490;-68
2022/10/04 06:37:25;;;;;;;16.20;8.55;;;;;;;18.10;87.33;101399.19;5114406;28;20394;-68
2022/10/04 06:39:56;;;;;;;11.98;8.00;;;;;;;18.32;86.73;101401.16;5113952;28;20474;-68
2022/10/04 06:42:38;;;;;;;11.95;8.20;;;;;;;18.37;85.88;101402.97;5114365;28;20397;-68
2022/10/04 06:45:43;;;;;;;12.18;8.48;;;;;;;18.44;86.22;101397.84;5114035;28;20405;-68
2022/10/04 06:48:32;;;;;;;14.13;7.95;;;;;;;18.67;85.17;101400.59;5113961;28;20063;-68
2022/10/04 06:51:39;;;;;;;14.60;8.88;;;;;;;18.90;84.36;101408.91;5102370;28;20035;-69
2022/10/04 06:54:26;;;;;;;15.10;8.88;;;;;;;19.06;83.26;101407.41;5113750;28;20086;-69
2022/10/04 06:57:22;;;;;;;15.18;9.20;;;;;;;19.11;83.66;101416.75;5113767;28;20051;-68
2022/10/04 07:00:08;;;;;;;14.40;8.93;;;;;;;19.33;82.59;101407.53;5113725;28;20044;-68
2022/10/04 07:02:46;;;;;;;13.90;8.90;;;;;;;19.56;80.71;101418.56;5095790;28;20040;-68
2022/10/04 07:05:50;;;;;;;14.45;8.95;;;;;;;19.77;79.64;101426.31;5113609;28;20048;-68
2022/10/04 07:08:40;;;;;;;14.88;9.95;;;;;;;19.96;79.89;101417.72;5104310;28;20059;-68
2022/10/04 07:11:24;;;;;;;13.30;9.00;;;;;;;20.03;79.08;101431.94;5113639;28;20074;-68
2022/10/04 07:14:03;;;;;;;16.13;10.40;;;;;;;20.25;77.41;101431.00;5113252;28;20409;-68
2022/10/04 07:16:37;;;;;;;13.43;9.57;;;;;;;20.42;77.31;101432.16;5113499;28;20422;-68
2022/10/04 07:19:22;;;;;;;17.10;9.35;;;;;;;20.49;76.38;101437.22;5113103;28;20375;-68
2022/10/04 07:22:11;;;;;;;14.43;8.48;;;;;;;20.51;76.43;101441.31;5113375;28;20433;-68
2022/10/04 07:25:16;;;;;;;14.55;9.20;;;;;;;20.88;75.76;101435.41;5113116;28;20379;-68
2022/10/04 07:29:19;;;;;;;15.95;8.80;;;;;;;21.54;72.94;101427.84;5112988;28;20043;-68
2022/10/04 07:30:51;;;;;;;16.58;9.57;;;;;;;21.59;69.68;101435.19;5113139;28;20043;-68
2022/10/04 07:33:23;;;;;;;17.75;10.93;;;;;;;21.96;67.68;101432.75;5094789;28;20055;-68
2022/10/04 07:35:59;;;;;;;16.15;10.45;;;;;;;21.98;67.11;101441.56;5112912;28;20078;-68
2022/10/04 07:38:30;;;;;;;16.92;10.85;;;;;;;22.32;67.93;101438.03;5100006;28;20050;-68
2022/10/04 07:41:17;;;;;;;17.50;10.20;;;;;;;22.37;66.62;101449.81;5093992;28;20493;-68
2022/10/04 07:43:58;;;;;;;19.15;11.63;;;;;;;22.35;65.48;101445.75;5112765;28;20036;-68
2022/10/04 07:46:48;;;;;;;17.77;10.95;;;;;;;21.67;67.72;101450.22;5112963;28;20044;-68
2022/10/04 07:49:19;;;;;;;19.58;11.57;;;;;;;21.01;69.45;101447.50;5100886;28;20425;-68
2022/10/04 07:52:15;;;;;;;18.13;11.75;;;;;;;21.57;69.04;101446.69;5112705;28;20498;-68
2022/10/04 07:55:06;;;;;;;20.88;12.13;;;;;;;21.82;70.02;101446.91;5112563;28;20036;-68
2022/10/04 07:57:59;;;;;;;21.50;12.80;;;;;;;22.00;68.07;101453.19;5093330;28;20040;-69
2022/10/04 08:00:43;;;;;;;20.50;12.18;;;;;;;22.10;67.59;101456.75;5112475;28;20063;-68
2022/10/04 08:03:45;;;;;;;17.92;10.90;;;;;;;22.17;68.53;101457.03;5112698;28;20043;-68
2022/10/04 08:06:35;;;;;;;17.85;11.45;;;;;;;22.15;68.00;101460.13;5095258;28;20063;-68
2022/10/04 08:09:40;;;;;;;16.95;11.88;;;;;;;22.25;69.69;101467.28;5109399;28;20051;-68
2022/10/04 08:12:27;;;;;;;18.58;11.18;;;;;;;21.99;69.97;101464.66;5029496;28;21091;-69
2022/10/04 08:15:12;;;;;;;17.33;10.48;;;;;;;22.04;69.91;101470.03;5099022;28;20067;-68
2022/10/04 08:17:58;;;;;;;17.38;10.35;;;;;;;22.19;69.08;101470.63;5112061;28;20047;-69
2022/10/04 08:20:44;;;;;;;18.63;11.57;;;;;;;22.32;70.15;101465.94;5112400;28;20067;-68
2022/10/04 08:23:20;;;;;;;16.48;10.02;;;;;;;22.38;68.89;101465.41;5099851;28;20047;-68
2022/10/04 08:25:48;;;;;;;14.52;10.27;;;;;;;22.40;68.72;101473.44;5112173;28;20043;-68
2022/10/04 08:31:25;;;;;;;19.33;11.70;;;;;;;22.45;68.49;101473.22;5112126;28;20044;-68
2022/10/04 08:34:20;;;;;;;18.30;11.50;;;;;;;22.67;69.26;101476.84;5112123;28;20509;-68
2022/10/04 08:37:02;;;;;;;16.55;10.75;;;;;;;22.47;67.01;101475.66;5089192;28;20048;-68
2022/10/04 08:39:40;;;;;;;15.82;11.38;;;;;;;22.63;66.35;101478.69;5112091;28;20058;-68
2022/10/04 08:42:17;;;;;;;14.05;10.80;;;;;;;22.20;66.98;101472.25;5111984;28;20371;-68
2022/10/04 08:45:23;;;;;;;20.10;11.65;;;;;;;22.39;68.59;101480.16;5112096;28;20608;-68
2022/10/04 08:47:54;;;;;;;23.17;10.90;;;;;;;22.55;66.38;101478.41;5102461;28;20496;-68
2022/10/04 08:50:34;;;;;;;12.30;9.95;;;;;;;22.44;66.87;101481.94;5094044;28;20040;-68
2022/10/04 08:53:20;;;;;;;14.80;10.05;;;;;;;23.15;63.27;101482.13;5115991;28;20039;-68
2022/10/04 08:56:05;;;;;;;22.23;10.70;;;;;;;22.90;66.40;101476.47;5109901;28;20048;-68
2022/10/04 08:58:35;;;;;;;;;;;;;;;22.66;66.30;101473.25;5126801;27;20405;-69
2022/10/04 09:01:39;;;;;;;17.02;9.75;;;;;;;23.03;64.96;101480.94;5116087;28;20301;-68
2022/10/04 09:04:29;;;;;;;11.13;8.85;;;;;;;22.58;64.42;101481.69;5115997;28;20501;-68
2022/10/04 09:07:17;;;;;;;12.48;8.38;;;;;;;22.43;66.50;101475.53;5116021;28;20054;-68
2022/10/04 09:09:50;;;;;;;10.60;7.80;;;;;;;22.84;65.31;101467.50;5084714;28;20398;-68
2022/10/04 09:12:48;;;;;;;12.35;7.43;;;;;;;22.93;63.79;101464.63;5115837;28;20074;-68
2022/10/04 09:15:19;;;;;;;10.48;7.63;;;;;;;23.38;62.10;101477.00;5115750;28;20047;-68
2022/10/04 09:18:16;;;;;;;10.20;7.28;;;;;;;23.00;62.35;101475.22;5115495;28;20047;-68
2022/10/04 09:20:47;;;;;;;9.60;6.95;;;;;;;23.04;62.46;101473.38;5097285;28;20105;-68
2022/10/04 09:23:41;;;;;;;9.77;6.95;;;;;;;23.61;59.95;101474.56;5115629;28;20055;-68
2022/10/04 09:26:31;;;;;;;10.02;6.78;;;;;;;23.60;61.14;101472.13;5115489;28;20054;-68
2022/10/04 09:29:30;;;;;;;9.82;6.43;;;;;;;23.13;60.16;101476.91;5115509;28;20485;-68
2022/10/04 09:32:29;;;;;;;7.90;5.75;;;;;;;24.32;56.19;101478.38;5105220;28;20048;-68
2022/10/04 09:35:15;;;;;;;11.25;6.72;;;;;;;23.72;56.90;101476.91;5115557;28;20035;-68
2022/10/04 09:37:56;;;;;;;13.60;6.90;;;;;;;22.99;59.67;101476.38;5115284;28;20043;-68
2022/10/04 09:40:30;;;;;;;11.30;7.55;;;;;;;23.41;58.38;101479.06;5115283;28;20054;-68
2022/10/04 09:43:18;;;;;;;9.05;7.30;;;;;;;23.78;58.58;101480.28;5115285;28;20050;-68
2022/10/04 09:46:17;;;;;;;10.38;6.47;;;;;;;23.19;57.67;101480.28;5096825;28;20047;-68
2022/10/04 09:48:54;;;;;;;10.50;7.15;;;;;;;23.15;58.65;101479.34;5114857;28;20036;-68
2022/10/04 09:51:29;;;;;;;8.88;7.03;;;;;;;23.15;57.96;101482.97;5115169;28;20061;-68
2022/10/04 09:54:06;;;;;;;9.55;7.30;;;;;;;22.79;58.90;101467.72;5096376;28;20492;-67
2022/10/04 09:57:13;;;;;;;11.25;6.53;;;;;;;23.25;56.27;101473.31;5114937;28;20051;-68
2022/10/04 10:00:20;;;;;;;9.35;6.78;;;;;;;23.08;58.98;101472.34;5103155;28;20494;-68
2022/10/04 10:03:15;;;;;;;10.48;6.45;;;;;;;23.61;58.51;101470.97;5114075;28;20043;-68
2022/10/04 10:06:16;;;;;;;9.10;6.28;;;;;;;24.14;53.99;101473.88;5114783;28;20055;-68
2022/10/04 10:09:01;;;;;;;10.65;6.28;;;;;;;23.41;57.91;101462.31;5096532;28;20391;-68
2022/10/04 10:14:37;;;;;;;10.57;6.88;;;;;;;22.65;58.61;101477.19;5114492;28;20047;-67
2022/10/04 10:17:29;;;;;;;9.10;6.47;;;;;;;22.90;58.72;101473.69;5114606;28;20517;-68
2022/10/04 10:20:15;;;;;;;10.65;7.05;;;;;;;22.85;56.91;101474.72;5101604;28;20493;-68
2022/10/04 10:23:25;;;;;;;9.00;6.47;;;;;;;23.29;57.50;101477.06;5114418;28;20406;-68
2022/10/04 10:26:11;;;;;;;10.27;6.82;;;;;;;23.74;56.83;101474.56;5101597;28;20516;-69
2022/10/04 10:28:57;;;;;;;13.45;6.40;;;;;;;23.53;55.87;101469.91;5114128;28;20088;-68
2022/10/04 10:31:50;;;;;;;8.13;5.75;;;;;;;23.99;54.13;101474.56;5096005;28;20054;-68
2022/10/04 10:34:45;;;;;;;9.55;5.70;;;;;;;24.04;56.17;101474.31;5096011;28;20044;-68
2022/10/04 10:37:36;;;;;;;6.80;5.32;;;;;;;24.05;54.48;101480.72;5114093;28;20047;-68
2022/10/04 10:40:19;;;;;;;7.40;5.15;;;;;;;24.19;55.77;101486.78;5113900;28;20040;-68
2022/10/04 10:43:04;;;;;;;10.18;6.13;;;;;;;24.49;53.80;101482.91;5104495;28;20035;-68
2022/10/04 10:45:48;;;;;;;10.25;5.57;;;;;;;24.54;53.56;101474.25;5108588;28;20386;-68
2022/10/04 10:48:25;;;;;;;10.20;5.55;;;;;;;24.20;54.74;101473.63;5108687;28;20047;-68
2022/10/04 10:50:58;;;;;;;7.18;5.30;;;;;;;23.93;55.50;101478.75;5105004;28;20047;-68
2022/10/04 10:53:51;;;;;;;5.25;4.50;;;;;;;24.24;54.11;101480.16;5107894;28;20040;-68
2022/10/04 10:56:43;;;;;;;4.75;4.22;;;;;;;23.61;54.77;101474.56;5107573;28;20051;-67
2022/10/04 10:59:36;;;;;;;6.45;4.10;;;;;;;23.92;54.14;101474.31;5108428;28;20044;-68
2022/10/04 11:02:53;;;;;;;4.97;3.80;;;;;;;24.34;53.61;101476.06;5088649;28;20036;-68
2022/10/04 11:06:15;;;;;;;6.68;4.63;;;;;;;25.21;51.81;101473.72;5102273;28;20036;-68
2022/10/04 11:09:14;;;;;;;5.90;4.38;;;;;;;25.13;52.10;101477.53;5088971;28;20055;-68
2022/10/04 11:12:03;;;;;;;6.20;4.25;;;;;;;25.52;50.95;101479.72;5108021;28;20500;-68
2022/10/04 11:14:33;;;;;;;6.78;4.72;;;;;;;25.10;50.78;101475.44;5103012;28;20060;-68
2022/10/04 11:17:24;;;;;;;5.03;3.80;;;;;;;24.99;52.60;101474.31;5108198;28;20105;-68
2022/10/04 11:20:04;;;;;;;4.15;3.40;;;;;;;25.12;51.53;101478.69;5125967;27;20047;-68
2022/10/04 11:23:09;;;;;;;7.32;4.32;;;;;;;24.83;50.74;101470.31;5105743;28;20379;-68
2022/10/04 11:25:48;;;;;;;4.45;4.05;;;;;;;24.07;52.39;101476.44;5101437;28;20046;-68
2022/10/04 11:28:28;;;;;;;4.38;3.97;;;;;;;23.90;53.53;101477.47;5089589;28;20040;-68
2022/10/04 11:31:39;;;;;;;3.92;3.53;;;;;;;23.88;52.82;101474.22;5106586;28;20043;-68
2022/10/04 11:34:25;;;;;;;5.18;4.43;;;;;;;23.84;51.95;101476.06;5101256;28;20043;-68
2022/10/04 11:37:13;;;;;;;5.18;3.65;;;;;;;24.46;52.85;101480.78;5104845;28;20044;-68
2022/10/04 11:40:08;;;;;;;6.63;3.78;;;;;;;24.43;53.14;101471.13;5090480;28;20051;-68
2022/10/04 11:42:55;;;;;;;5.97;4.60;;;;;;;24.20;53.13;101470.84;5112904;28;20047;-69
2022/10/04 11:45:37;;;;;;;4.25;3.80;;;;;;;24.76;51.82;101472.88;5112756;28;20049;-69
2022/10/04 11:48:33;;;;;;;5.25;3.58;;;;;;;24.78;52.16;101469.75;5112653;28;20043;-68
2022/10/04 11:51:11;;;;;;;4.93;3.33;;;;;;;24.59;53.12;101473.19;5101071;28;20495;-68
2022/10/04 11:53:41;;;;;;;3.92;3.08;;;;;;;24.52;53.06;101473.78;5112676;28;20482;-68
2022/10/04 11:56:47;;;;;;;4.10;3.70;;;;;;;24.87;51.95;101467.59;5112648;28;20047;-68
2022/10/04 12:00:09;;;;;;;8.63;4.40;;;;;;;25.04;52.36;101471.25;5094700;28;20482;-68
2022/10/04 12:03:14;;;;;;;7.15;3.92;;;;;;;24.31;54.50;101457.19;5088689;28;20039;-68
2022/10/04 12:06:04;;;;;;;4.00;3.47;;;;;;;24.79;52.60;101462.97;5112669;28;20054;-68
2022/10/04 12:08:51;;;;;;;3.90;3.42;;;;;;;24.96;52.91;101464.66;5099290;28;20036;-86
2022/10/04 12:15:12;;;;;;;3.90;3.50;;;;;;;24.79;53.68;101458.16;5094542;28;20039;-86
2022/10/04 12:18:37;;;;;;;5.03;3.92;;;;;;;24.62;52.74;101472.47;5112161;28;20051;-86
2022/10/04 12:21:11;;;;;;;6.30;4.00;;;;;;;24.62;53.50;101458.47;5049670;28;20427;-87
2022/10/04 12:23:58;;;;;;;;;;;;;;;24.37;53.44;101456.59;5049557;28;20399;-86
2022/10/04 12:26:41;;;;;;;3.78;3.35;;;;;;;24.25;54.08;101467.81;5108137;27;19920;-85
2022/10/04 12:29:47;;;;;;;5.95;4.03;;;;;;;24.25;54.92;101460.22;5093586;28;20064;-86
2022/10/04 12:32:42;;;;;;;5.53;3.33;;;;;;;24.26;54.64;101456.28;5093770;28;20383;-85
2022/10/04 12:35:54;;;;;;;5.90;3.40;;;;;;;24.15;54.54;101463.50;5108375;28;20039;-84